Time;durP1;ratioP1;P1;durP2;ratioP2;P2;SDS_P1;SDS_P2;PMS_P1;PMS_P2;Temp;Humidity;BMP_temperature;BMP_pressure;BME280_temperature;BME280_humidity;BME280_pressure;Samples;Min_cycle;Max_cycle;Signal;HPM_P1;HPM_P2
2022/05/16 00:00:11;;;;;;;7.13;3.67;;;15.90;99.90;;;;;;5031911;28;20435;-76
2022/05/16 00:02:37;;;;;;;7.28;3.33;;;15.90;99.90;;;;;;5032941;28;20380;-76
2022/05/16 00:05:03;;;;;;;10.73;3.80;;;16.10;99.90;;;;;;5031919;28;20545;-76
2022/05/16 00:07:28;;;;;;;7.93;3.65;;;16.00;99.90;;;;;;5032113;28;20468;-76
2022/05/16 00:09:54;;;;;;;8.60;3.80;;;16.10;99.90;;;;;;5033191;28;20060;-76
2022/05/16 00:12:20;;;;;;;9.73;3.88;;;16.20;99.90;;;;;;5032675;28;20017;-76
2022/05/16 00:14:45;;;;;;;7.72;4.00;;;16.00;99.90;;;;;;5034403;28;20018;-77
2022/05/16 00:17:12;;;;;;;8.45;4.18;;;16.20;99.90;;;;;;5037763;28;20187;-77
2022/05/16 00:19:39;;;;;;;7.03;3.80;;;16.40;99.90;;;;;;5033823;28;20101;-76
2022/05/16 00:22:05;;;;;;;10.40;4.03;;;16.50;99.90;;;;;;5031864;28;20040;-77
2022/05/16 00:24:31;;;;;;;8.93;3.97;;;16.30;99.90;;;;;;5033422;28;20032;-76
2022/05/16 00:26:58;;;;;;;10.48;4.10;;;16.00;99.90;;;;;;5034474;28;20025;-76
2022/05/16 00:29:24;;;;;;;8.10;3.85;;;15.90;99.90;;;;;;5032155;28;20025;-77
2022/05/16 00:31:50;;;;;;;8.60;4.20;;;16.00;99.90;;;;;;5032203;28;20033;-76
2022/05/16 00:34:16;;;;;;;9.93;3.97;;;16.10;99.90;;;;;;5032471;28;20526;-76
2022/05/16 00:36:43;;;;;;;10.18;4.18;;;16.00;99.90;;;;;;5031274;28;20076;-76
2022/05/16 00:39:09;;;;;;;9.45;3.88;;;16.10;99.90;;;;;;5032214;28;20488;-78
2022/05/16 00:41:34;;;;;;;8.43;3.88;;;16.00;99.90;;;;;;5038390;28;20039;-76
2022/05/16 00:44:00;;;;;;;10.23;4.47;;;16.40;99.90;;;;;;5032781;28;20056;-76
2022/05/16 00:46:29;;;;;;;9.10;3.78;;;16.50;99.90;;;;;;5032821;28;20013;-77
2022/05/16 00:48:55;;;;;;;6.10;4.20;;;16.50;99.90;;;;;;5032589;28;20037;-76
2022/05/16 00:51:29;;;;;;;8.57;3.78;;;16.70;99.90;;;;;;5031837;28;20098;-76
2022/05/16 00:53:59;;;;;;;8.07;3.92;;;16.80;99.90;;;;;;5032254;28;20096;-77
2022/05/16 00:56:27;;;;;;;10.95;3.97;;;16.90;99.90;;;;;;5031188;28;20025;-77
2022/05/16 00:58:52;;;;;;;8.63;3.92;;;16.90;99.90;;;;;;5032543;28;20044;-77
2022/05/16 01:06:49;;;;;;;9.82;4.53;;;17.00;99.90;;;;;;5032167;28;20033;-77
2022/05/16 01:09:15;;;;;;;7.13;4.05;;;16.90;99.90;;;;;;5030605;28;20105;-76
2022/05/16 01:11:41;;;;;;;7.90;3.75;;;16.90;99.90;;;;;;5030169;28;20109;-77
2022/05/16 01:14:07;;;;;;;8.02;4.22;;;16.90;99.90;;;;;;5031517;28;20053;-76
2022/05/16 01:16:33;;;;;;;7.22;3.63;;;16.90;99.90;;;;;;5031939;28;20108;-76
2022/05/16 01:18:59;;;;;;;4.90;3.53;;;16.80;99.90;;;;;;5030557;28;20029;-77
2022/05/16 01:21:35;;;;;;;7.28;3.55;;;16.80;99.90;;;;;;5031316;28;20075;-77
2022/05/16 01:24:04;;;;;;;;;;;16.80;99.90;;;;;;5032100;28;20040;-77
2022/05/16 01:26:30;;;;;;;7.93;4.30;;;16.90;99.90;;;;;;5030296;28;19917;-76
2022/05/16 01:28:56;;;;;;;10.23;3.80;;;16.90;99.90;;;;;;5031664;28;20021;-75
2022/05/16 01:31:22;;;;;;;10.45;4.45;;;16.90;99.90;;;;;;5030836;28;20384;-75
2022/05/16 01:33:48;;;;;;;8.32;3.75;;;16.70;99.90;;;;;;5024669;28;20030;-75
2022/05/16 01:36:13;;;;;;;7.85;3.83;;;16.60;99.90;;;;;;5025676;28;20487;-75
2022/05/16 01:38:40;;;;;;;5.75;3.65;;;16.60;99.90;;;;;;5030192;28;20499;-75
2022/05/16 01:41:12;;;;;;;8.68;3.88;;;16.60;99.90;;;;;;5029683;28;20160;-76
2022/05/16 01:43:45;;;;;;;8.23;3.65;;;16.30;99.90;;;;;;5031533;28;20029;-77
2022/05/16 01:46:14;;;;;;;9.20;4.13;;;16.10;99.90;;;;;;5027924;28;20032;-77
2022/05/16 01:48:40;;;;;;;11.80;4.28;;;15.80;99.90;;;;;;5019992;28;20108;-76
2022/05/16 01:51:09;;;;;;;7.03;4.35;;;15.60;99.90;;;;;;5026438;28;20427;-76
2022/05/16 01:53:36;;;;;;;7.30;4.30;;;15.50;99.90;;;;;;5031573;28;20124;-77
2022/05/16 01:56:01;;;;;;;6.20;3.80;;;15.60;99.90;;;;;;5028373;28;20033;-77
2022/05/16 01:58:27;;;;;;;7.15;4.22;;;15.90;99.90;;;;;;5030518;28;20030;-76
2022/05/16 02:00:53;;;;;;;9.68;4.03;;;15.90;99.90;;;;;;5030988;28;20103;-75
2022/05/16 02:03:19;;;;;;;7.90;4.32;;;15.90;99.90;;;;;;5032282;28;20057;-77
2022/05/16 02:05:46;;;;;;;11.38;4.88;;;15.70;99.90;;;;;;5033921;28;20037;-76
2022/05/16 02:08:13;;;;;;;9.02;4.20;;;15.60;99.90;;;;;;5032007;28;20024;-75
2022/05/16 02:10:39;;;;;;;8.35;4.63;;;15.50;99.90;;;;;;5031168;28;20017;-79
2022/05/16 02:13:05;;;;;;;8.25;4.32;;;15.40;99.90;;;;;;5032299;28;20097;-78
2022/05/16 02:15:33;;;;;;;8.20;4.30;;;15.40;99.90;;;;;;5032088;28;20048;-77
2022/05/16 02:17:59;;;;;;;10.15;4.85;;;15.40;99.90;;;;;;5031672;28;20036;-76
2022/05/16 02:20:25;;;;;;;9.50;4.60;;;15.30;99.90;;;;;;5032291;28;20104;-77
2022/05/16 02:25:38;;;;;;;7.40;4.85;;;15.10;99.90;;;;;;5032145;28;20036;-77
2022/05/16 02:28:05;;;;;;;11.30;5.22;;;14.60;99.90;;;;;;5032826;28;20113;-76
2022/05/16 02:30:31;;;;;;;11.18;4.10;;;14.40;99.90;;;;;;5026674;28;20025;-76
2022/05/16 02:32:57;;;;;;;8.07;4.70;;;14.60;99.90;;;;;;5031274;28;20025;-75
2022/05/16 02:35:23;;;;;;;8.98;4.63;;;14.50;99.90;;;;;;5024748;28;20029;-75
2022/05/16 02:37:50;;;;;;;6.03;3.95;;;14.70;99.90;;;;;;5024959;28;20094;-75
2022/05/16 02:40:16;;;;;;;8.55;4.50;;;14.70;99.90;;;;;;5016946;28;20618;-80
2022/05/16 02:42:42;;;;;;;8.75;4.88;;;14.50;99.90;;;;;;5031225;28;20164;-75
2022/05/16 02:45:08;;;;;;;10.63;4.60;;;14.10;99.90;;;;;;5024907;28;20030;-75
2022/05/16 02:47:35;;;;;;;9.18;4.65;;;14.00;99.90;;;;;;5029969;28;20021;-75
2022/05/16 02:50:01;;;;;;;8.88;4.57;;;14.30;99.90;;;;;;5029903;28;20025;-77
2022/05/16 02:52:26;;;;;;;7.00;4.38;;;14.50;99.90;;;;;;5032910;28;20033;-77
2022/05/16 02:54:52;;;;;;;6.57;4.50;;;14.60;99.90;;;;;;5033441;28;20060;-74
2022/05/16 02:57:18;;;;;;;9.45;4.13;;;14.70;99.90;;;;;;5034615;28;20387;-75
2022/05/16 02:59:44;;;;;;;11.13;4.72;;;14.70;99.90;;;;;;5026503;28;20034;-76
2022/05/16 03:02:11;;;;;;;8.00;4.80;;;14.60;99.90;;;;;;5026671;28;20029;-77
2022/05/16 03:04:37;;;;;;;8.68;5.47;;;14.70;99.90;;;;;;5035867;28;20036;-75
2022/05/16 03:07:04;;;;;;;9.32;4.78;;;14.40;99.90;;;;;;5036193;28;20021;-75
2022/05/16 03:09:30;;;;;;;9.95;4.45;;;14.20;99.90;;;;;;5035728;28;20024;-76
2022/05/16 03:11:56;;;;;;;7.28;4.43;;;14.20;99.90;;;;;;5034012;28;20029;-76
2022/05/16 03:14:23;;;;;;;9.23;4.88;;;14.20;99.90;;;;;;5025649;28;20029;-76
2022/05/16 03:16:48;;;;;;;6.95;4.63;;;14.10;99.90;;;;;;5033338;28;20040;-77
2022/05/16 03:19:15;;;;;;;8.77;4.65;;;14.10;99.90;;;;;;5022401;28;20025;-76
2022/05/16 03:21:40;;;;;;;10.27;4.78;;;14.00;99.90;;;;;;5034847;28;20021;-77
2022/05/16 03:24:08;;;;;;;16.67;5.50;;;14.10;99.90;;;;;;5035925;28;20021;-77
2022/05/16 03:26:34;;;;;;;7.57;4.43;;;14.20;99.90;;;;;;5036374;28;20081;-77
2022/05/16 03:29:00;;;;;;;11.77;4.90;;;14.10;99.90;;;;;;5036759;28;20048;-77
2022/05/16 03:31:25;;;;;;;8.18;4.88;;;14.00;99.90;;;;;;5020335;28;20472;-75
2022/05/16 03:33:51;;;;;;;6.80;4.07;;;13.90;99.90;;;;;;5032213;28;20041;-76
2022/05/16 03:36:17;;;;;;;12.13;5.18;;;13.90;99.90;;;;;;5027601;28;20053;-76
2022/05/16 03:41:27;;;;;;;7.50;4.93;;;13.50;99.90;;;;;;5033229;28;20033;-76
2022/05/16 03:43:52;;;;;;;8.90;5.03;;;13.50;99.90;;;;;;5033494;28;20033;-76
2022/05/16 03:46:18;;;;;;;6.68;5.07;;;13.50;99.90;;;;;;5020277;28;20053;-77
2022/05/16 03:48:44;;;;;;;9.93;4.93;;;13.60;99.90;;;;;;5032374;28;20032;-77
2022/05/16 03:51:12;;;;;;;8.20;4.30;;;13.60;99.90;;;;;;5030743;28;20021;-77
2022/05/16 03:53:46;;;;;;;8.68;4.88;;;13.60;99.90;;;;;;5022694;28;20037;-76
2022/05/16 03:56:15;;;;;;;9.15;4.85;;;13.60;99.90;;;;;;5032207;28;20030;-77
2022/05/16 03:58:41;;;;;;;11.40;5.13;;;13.60;99.90;;;;;;5033317;28;20480;-77
2022/05/16 04:01:07;;;;;;;8.80;5.22;;;13.50;99.90;;;;;;5029307;28;20116;-76
2022/05/16 04:03:32;;;;;;;7.30;4.70;;;13.40;99.90;;;;;;5033342;28;20030;-75
2022/05/16 04:05:58;;;;;;;9.15;5.53;;;13.50;99.90;;;;;;5027867;28;20539;-75
2022/05/16 04:08:23;;;;;;;7.90;4.80;;;13.60;99.90;;;;;;5025364;28;20475;-76
2022/05/16 04:10:49;;;;;;;10.32;5.45;;;13.60;99.90;;;;;;5019357;28;20027;-76
2022/05/16 04:13:14;;;;;;;10.20;5.13;;;13.40;99.90;;;;;;5033089;28;20018;-75
2022/05/16 04:15:40;;;;;;;8.80;5.18;;;13.30;99.90;;;;;;5026619;28;20037;-76
2022/05/16 04:18:05;;;;;;;7.82;4.88;;;13.30;99.90;;;;;;5023434;28;20059;-76
2022/05/16 04:20:31;;;;;;;8.00;4.80;;;13.50;99.90;;;;;;5032587;28;20095;-77
2022/05/16 04:22:57;;;;;;;13.02;5.80;;;13.40;99.90;;;;;;5032831;28;20390;-75
2022/05/16 04:25:23;;;;;;;7.35;4.97;;;13.40;99.90;;;;;;5032721;28;20040;-75
2022/05/16 04:27:48;;;;;;;8.10;5.20;;;13.40;99.90;;;;;;5031548;28;20601;-76
2022/05/16 04:30:14;;;;;;;9.45;5.22;;;13.70;99.90;;;;;;5032305;28;20120;-76
2022/05/16 04:32:39;;;;;;;8.57;4.72;;;13.60;99.90;;;;;;5021539;28;20022;-75
2022/05/16 04:35:06;;;;;;;8.82;5.07;;;13.70;99.90;;;;;;5024901;28;20420;-76
2022/05/16 04:37:33;;;;;;;8.00;4.97;;;13.80;99.90;;;;;;5022720;28;20109;-76
2022/05/16 04:40:04;;;;;;;10.60;5.47;;;14.00;99.90;;;;;;5019318;28;20602;-76
2022/05/16 04:42:42;;;;;;;9.00;4.82;;;14.30;99.90;;;;;;5031792;28;20041;-76
2022/05/16 04:45:23;;;;;;;13.27;4.82;;;14.50;99.90;;;;;;5031069;28;20399;-76
2022/05/16 04:47:51;;;;;;;9.57;5.00;;;14.70;99.90;;;;;;5030312;28;20022;-76
2022/05/16 04:50:23;;;;;;;8.75;4.43;;;15.10;99.90;;;;;;5021221;28;20025;-76
2022/05/16 04:52:48;;;;;;;7.30;5.32;;;15.40;99.90;;;;;;5030645;28;20021;-76
2022/05/16 04:55:15;;;;;;;9.35;5.57;;;14.60;99.90;;;;;;5030939;28;20025;-76
2022/05/16 04:57:41;;;;;;;6.97;5.35;;;13.80;99.90;;;;;;5018940;28;20052;-76
2022/05/16 05:00:08;;;;;;;10.25;5.18;;;13.70;99.90;;;;;;5021028;28;20056;-77
2022/05/16 05:02:33;;;;;;;9.10;5.15;;;14.40;99.90;;;;;;5026326;28;20033;-76
2022/05/16 05:04:59;;;;;;;9.95;4.45;;;15.00;99.90;;;;;;5030452;28;20021;-73
2022/05/16 05:07:25;;;;;;;9.75;4.88;;;15.00;99.90;;;;;;5027790;28;20519;-74
2022/05/16 05:15:19;;;;;;;10.52;5.40;;;15.10;99.90;;;;;;5017978;28;20095;-74
2022/05/16 05:17:45;;;;;;;9.48;5.90;;;15.00;99.90;;;;;;5022246;28;20480;-74
2022/05/16 05:20:15;;;;;;;10.15;5.85;;;14.80;99.90;;;;;;5012299;28;20396;-74
2022/05/16 05:22:42;;;;;;;11.65;5.88;;;14.80;99.90;;;;;;5032038;28;20109;-74
2022/05/16 05:25:11;;;;;;;11.80;5.90;;;14.90;99.90;;;;;;5018775;28;20061;-74
2022/05/16 05:27:38;;;;;;;9.88;6.70;;;15.00;99.90;;;;;;5021082;28;20022;-74
2022/05/16 05:30:04;;;;;;;11.45;5.75;;;15.30;99.90;;;;;;5025391;28;20551;-75
2022/05/16 05:32:29;;;;;;;9.30;5.50;;;15.30;99.90;;;;;;5021126;28;20032;-74
2022/05/16 05:34:55;;;;;;;8.77;6.00;;;15.40;99.90;;;;;;5017231;28;20029;-75
2022/05/16 05:37:20;;;;;;;10.18;5.00;;;15.80;99.90;;;;;;5030526;28;20476;-75
2022/05/16 05:39:46;;;;;;;14.15;6.15;;;16.00;99.90;;;;;;5018230;28;20742;-75
2022/05/16 05:42:11;;;;;;;9.93;5.63;;;16.30;99.90;;;;;;5031141;28;20036;-75
2022/05/16 05:44:37;;;;;;;12.50;5.57;;;16.50;99.90;;;;;;5018327;28;20041;-77
2022/05/16 05:47:03;;;;;;;8.30;5.63;;;16.80;99.90;;;;;;5021513;28;20025;-75
2022/05/16 05:49:28;;;;;;;10.32;5.88;;;16.80;99.90;;;;;;5014230;28;20480;-75
2022/05/16 05:51:55;;;;;;;11.15;5.45;;;16.60;99.90;;;;;;5021405;28;20478;-75
2022/05/16 05:54:21;;;;;;;11.70;5.93;;;16.60;99.90;;;;;;5027514;28;20506;-76
2022/05/16 05:56:46;;;;;;;12.30;6.20;;;16.70;99.90;;;;;;5022552;28;20030;-76
2022/05/16 05:59:12;;;;;;;11.48;6.07;;;16.70;99.90;;;;;;5012901;28;20030;-75
2022/05/16 06:01:37;;;;;;;13.10;6.55;;;16.70;99.90;;;;;;5030621;28;20484;-76
2022/05/16 06:04:03;;;;;;;16.85;6.93;;;16.80;99.90;;;;;;5030273;28;20053;-75
2022/05/16 06:06:29;;;;;;;15.55;7.03;;;16.50;99.90;;;;;;5021281;28;20074;-76
2022/05/16 06:08:54;;;;;;;8.63;5.45;;;16.50;99.90;;;;;;5030115;28;20022;-75
2022/05/16 06:11:21;;;;;;;11.57;6.18;;;16.60;99.90;;;;;;5030875;28;20075;-78
2022/05/16 06:13:47;;;;;;;11.50;5.72;;;16.70;99.90;;;;;;5033180;28;20021;-76
2022/05/16 06:16:13;;;;;;;12.48;6.40;;;16.50;99.90;;;;;;5030923;28;20025;-75
2022/05/16 06:18:38;;;;;;;10.40;6.35;;;16.40;99.90;;;;;;5028130;28;20026;-72
2022/05/16 06:21:05;;;;;;;10.88;6.05;;;16.50;99.90;;;;;;5019809;28;20572;-72
2022/05/16 06:23:30;;;;;;;12.15;6.40;;;16.60;99.90;;;;;;5018558;28;20054;-76
2022/05/16 06:25:57;;;;;;;11.88;6.10;;;16.40;99.90;;;;;;5025353;28;20021;-76
2022/05/16 06:28:25;;;;;;;9.05;5.47;;;16.40;99.90;;;;;;5028997;28;20080;-76
2022/05/16 06:30:52;;;;;;;9.77;5.70;;;16.50;99.90;;;;;;5025454;28;20057;-76
2022/05/16 06:33:20;;;;;;;9.98;6.25;;;16.50;99.90;;;;;;5022390;28;20025;-77
2022/05/16 06:35:47;;;;;;;7.60;5.60;;;16.60;99.90;;;;;;5026982;28;20026;-76
2022/05/16 06:38:16;;;;;;;10.70;5.50;;;16.60;99.90;;;;;;5015058;28;20033;-77
2022/05/16 06:40:46;;;;;;;9.23;5.85;;;16.70;99.90;;;;;;5026044;28;20030;-77
2022/05/16 06:43:12;;;;;;;9.95;5.63;;;16.80;99.90;;;;;;5035115;28;20480;-77
2022/05/16 06:45:37;;;;;;;9.95;5.93;;;17.00;99.90;;;;;;5021648;28;20025;-77
2022/05/16 06:48:04;;;;;;;10.18;6.05;;;17.30;99.90;;;;;;5034675;28;20022;-77
2022/05/16 06:50:31;;;;;;;9.32;6.05;;;17.50;99.90;;;;;;5035198;28;20105;-77
2022/05/16 06:52:57;;;;;;;11.30;5.90;;;17.80;99.90;;;;;;5035940;28;20049;-79
2022/05/16 06:55:23;;;;;;;9.88;5.82;;;18.00;99.90;;;;;;5035705;28;20025;-80
2022/05/16 06:57:48;;;;;;;12.85;6.30;;;17.90;99.90;;;;;;5035303;28;20060;-77
2022/05/16 07:00:15;;;;;;;9.90;5.53;;;18.20;99.90;;;;;;5035805;28;20367;-76
2022/05/16 07:02:40;;;;;;;9.30;5.30;;;18.40;99.90;;;;;;5022676;28;20479;-77
2022/05/16 07:05:07;;;;;;;11.90;5.07;;;18.30;99.90;;;;;;5036069;28;20112;-77
2022/05/16 07:07:33;;;;;;;10.07;5.10;;;18.40;99.90;;;;;;5035157;28;20026;-78
2022/05/16 07:10:00;;;;;;;7.45;5.20;;;18.30;99.90;;;;;;5022576;28;20464;-75
2022/05/16 07:12:25;;;;;;;13.25;5.60;;;18.30;99.90;;;;;;5032051;28;20027;-75
2022/05/16 07:14:51;;;;;;;9.48;5.47;;;18.70;99.90;;;;;;5035016;28;20029;-76
2022/05/16 07:17:17;;;;;;;9.27;5.45;;;18.70;99.90;;;;;;5030646;28;20029;-76
2022/05/16 07:19:43;;;;;;;11.40;5.35;;;18.60;99.90;;;;;;5026258;28;20030;-76
2022/05/16 07:22:11;;;;;;;9.32;5.05;;;18.90;99.90;;;;;;5020732;28;20109;-76
2022/05/16 07:24:39;;;;;;;10.68;4.88;;;19.20;99.90;;;;;;5022873;28;20033;-75
2022/05/16 07:29:49;;;;;;;11.93;5.30;;;19.30;99.90;;;;;;5034178;28;20040;-76
2022/05/16 07:32:15;;;;;;;7.15;4.22;;;19.50;99.90;;;;;;5025287;28;20472;-76
2022/05/16 07:34:40;;;;;;;8.43;4.43;;;20.00;99.90;;;;;;5025497;28;20112;-74
2022/05/16 07:37:07;;;;;;;9.25;3.97;;;20.30;99.90;;;;;;5031465;28;20036;-75
2022/05/16 07:39:35;;;;;;;7.15;4.43;;;20.40;99.90;;;;;;5034670;28;20018;-77
2022/05/16 07:42:07;;;;;;;9.32;4.35;;;20.60;99.90;;;;;;5032687;28;20398;-75
2022/05/16 07:44:33;;;;;;;7.55;4.13;;;20.70;99.90;;;;;;5020407;28;20719;-75
2022/05/16 07:46:59;;;;;;;7.88;3.47;;;20.80;99.90;;;;;;5033683;28;20111;-75
2022/05/16 07:49:25;;;;;;;6.53;3.85;;;20.80;99.90;;;;;;5031256;28;20072;-75
2022/05/16 07:51:50;;;;;;;5.03;3.88;;;21.10;99.90;;;;;;5013790;28;20415;-76
2022/05/16 07:54:16;;;;;;;8.68;3.42;;;21.30;99.90;;;;;;5027905;28;20025;-77
2022/05/16 07:56:41;;;;;;;5.65;3.35;;;21.50;99.90;;;;;;5033823;28;20140;-76
2022/05/16 07:59:09;;;;;;;7.03;3.47;;;21.80;99.90;;;;;;5033046;28;20524;-76
2022/05/16 08:01:35;;;;;;;9.48;3.70;;;21.80;99.90;;;;;;5032053;28;20034;-75
2022/05/16 08:04:01;;;;;;;8.63;4.05;;;21.60;99.90;;;;;;5032694;28;20021;-75
2022/05/16 08:06:27;;;;;;;9.68;3.72;;;21.40;99.90;;;;;;5033684;28;20486;-76
2022/05/16 08:11:38;;;;;;;5.68;3.55;;;21.20;99.90;;;;;;5033782;28;20035;-77
2022/05/16 08:14:04;;;;;;;13.05;3.75;;;21.60;99.90;;;;;;5019284;28;20466;-75
2022/05/16 08:16:30;;;;;;;6.80;3.95;;;21.60;99.90;;;;;;5033497;28;20048;-76
2022/05/16 08:18:55;;;;;;;6.82;3.55;;;21.70;99.90;;;;;;5014275;28;20033;-76
2022/05/16 08:21:21;;;;;;;6.22;3.45;;;21.60;99.90;;;;;;5026168;28;20025;-77
2022/05/16 08:23:46;;;;;;;11.02;3.92;;;21.40;99.90;;;;;;5033369;28;20614;-77
2022/05/16 08:26:12;;;;;;;11.50;4.00;;;21.20;99.90;;;;;;5031694;28;20026;-77
2022/05/16 08:28:39;;;;;;;6.57;3.53;;;21.30;99.90;;;;;;5032820;28;20072;-77
2022/05/16 08:31:04;;;;;;;8.50;4.03;;;21.50;99.90;;;;;;5032209;28;20021;-77
2022/05/16 08:33:32;;;;;;;8.68;3.45;;;22.00;99.90;;;;;;5019548;28;20504;-77
2022/05/16 08:41:30;;;;;;;6.60;3.40;;;23.30;99.90;;;;;;5032093;28;20060;-78
2022/05/16 08:44:35;;;;;;;7.18;3.40;;;23.20;99.90;;;;;;5022370;28;20026;-77
2022/05/16 08:47:31;;;;;;;6.43;3.08;;;22.80;99.90;;;;;;4972473;28;20042;-76
2022/05/16 08:50:01;;;;;;;5.10;3.40;;;22.60;99.90;;;;;;5031870;28;20433;-77
2022/05/16 08:52:41;;;;;;;4.45;3.00;;;22.70;99.90;;;;;;5030195;28;20036;-77
2022/05/16 08:55:13;;;;;;;10.55;3.50;;;22.60;99.90;;;;;;5031056;28;20068;-76
2022/05/16 08:57:45;;;;;;;6.43;3.15;;;23.20;99.90;;;;;;5032261;28;20021;-77
2022/05/16 09:00:20;;;;;;;5.88;3.40;;;23.60;99.90;;;;;;5032181;28;20038;-77
2022/05/16 09:02:49;;;;;;;6.18;3.40;;;23.40;99.90;;;;;;5027408;28;20372;-76
2022/05/16 09:05:24;;;;;;;6.78;3.40;;;23.30;99.90;;;;;;5024230;28;20037;-77
2022/05/16 09:07:55;;;;;;;4.23;3.30;;;23.60;99.90;;;;;;5018915;28;20025;-77
2022/05/16 09:10:22;;;;;;;6.18;3.22;;;23.90;99.90;;;;;;5027912;28;20107;-77
2022/05/16 09:13:25;;;;;;;9.15;3.30;;;23.70;99.90;;;;;;5032612;28;20033;-77
2022/05/16 09:16:05;;;;;;;7.78;3.17;;;23.40;99.90;;;;;;5030510;28;20032;-75
2022/05/16 09:18:40;;;;;;;7.68;3.63;;;23.20;99.90;;;;;;5027378;28;20067;-76
2022/05/16 09:21:24;;;;;;;6.27;3.07;;;22.80;99.90;;;;;;5031073;28;20364;-76
2022/05/16 09:24:00;;;;;;;7.45;3.58;;;22.30;99.90;;;;;;5032918;28;20284;-76
2022/05/16 09:26:25;;;;;;;;;;;22.10;99.90;;;;;;5031700;28;20047;-77
2022/05/16 09:28:59;;;;;;;7.13;4.30;;;21.20;99.90;;;;;;5030796;28;20033;-73
2022/05/16 09:31:39;;;;;;;8.13;4.18;;;20.20;99.90;;;;;;5025276;28;20021;-77
2022/05/16 09:34:06;;;;;;;8.82;4.72;;;20.20;99.90;;;;;;5020999;28;20061;-77
2022/05/16 09:36:34;;;;;;;10.65;4.90;;;20.40;99.90;;;;;;5030892;28;20033;-76
2022/05/16 09:39:00;;;;;;;10.38;5.18;;;20.60;99.90;;;;;;5032595;28;20025;-76
2022/05/16 09:41:38;;;;;;;11.10;5.35;;;20.60;99.90;;;;;;5017612;28;20488;-76
2022/05/16 09:44:06;;;;;;;9.25;5.78;;;20.60;99.90;;;;;;5031368;28;20402;-76
2022/05/16 09:46:34;;;;;;;10.35;6.25;;;20.80;99.90;;;;;;5031140;28;20021;-77
2022/05/16 09:49:06;;;;;;;17.33;7.25;;;20.80;99.90;;;;;;5031369;28;20025;-77
2022/05/16 09:51:44;;;;;;;10.80;5.60;;;21.10;99.90;;;;;;5031320;28;20022;-76
2022/05/16 09:54:16;;;;;;;11.52;4.70;;;21.00;99.90;;;;;;5019712;28;20041;-75
2022/05/16 09:57:05;;;;;;;6.32;4.65;;;21.10;99.90;;;;;;5032094;28;20112;-77
2022/05/16 09:59:55;;;;;;;8.38;4.65;;;20.90;99.90;;;;;;5032246;28;20507;-77
2022/05/16 10:02:33;;;;;;;9.05;5.10;;;20.90;99.90;;;;;;5034243;28;20029;-75
2022/05/16 10:05:00;;;;;;;9.13;4.53;;;21.30;99.90;;;;;;5036237;28;20055;-77
2022/05/16 10:07:31;;;;;;;6.85;4.70;;;21.40;99.90;;;;;;5032244;28;20029;-77
2022/05/16 10:09:58;;;;;;;7.80;4.85;;;21.30;99.90;;;;;;5025346;28;20022;-77
2022/05/16 10:12:27;;;;;;;7.80;4.50;;;21.60;99.90;;;;;;5021807;28;20572;-77
2022/05/16 10:14:53;;;;;;;6.30;4.60;;;22.00;99.90;;;;;;5023395;28;20221;-77
2022/05/16 10:17:30;;;;;;;6.85;4.50;;;22.00;99.90;;;;;;5029766;28;20123;-78
2022/05/16 10:20:01;;;;;;;5.43;3.88;;;22.10;99.90;;;;;;5028876;28;20090;-76
2022/05/16 10:22:28;;;;;;;6.45;3.88;;;22.20;99.90;;;;;;5022323;28;20120;-77
2022/05/16 10:24:55;;;;;;;9.88;4.70;;;22.20;99.90;;;;;;5034118;28;20498;-77
2022/05/16 10:27:28;;;;;;;5.85;4.10;;;22.60;99.90;;;;;;5024211;28;20083;-77
2022/05/16 10:29:55;;;;;;;4.82;4.03;;;23.30;99.90;;;;;;5021942;28;20105;-77
2022/05/16 10:35:32;;;;;;;8.48;4.53;;;24.40;99.90;;;;;;5035318;28;20515;-76
2022/05/16 10:38:02;;;;;;;7.20;3.90;;;23.70;99.90;;;;;;5021719;28;20049;-77
2022/05/16 10:40:30;;;;;;;7.05;4.35;;;23.60;99.90;;;;;;5023926;28;20113;-77
2022/05/16 10:43:18;;;;;;;8.60;4.30;;;23.10;99.90;;;;;;5028138;28;20037;-77
2022/05/16 10:46:01;;;;;;;6.50;4.45;;;22.90;99.90;;;;;;5019743;28;20036;-76
2022/05/16 10:48:41;;;;;;;9.50;4.63;;;22.90;99.90;;;;;;5033492;28;20025;-77
2022/05/16 10:51:18;;;;;;;8.10;4.90;;;22.80;99.90;;;;;;5034293;28;20053;-77
2022/05/16 10:54:04;;;;;;;9.25;4.63;;;22.70;99.90;;;;;;5034677;28;20026;-77
2022/05/16 10:56:35;;;;;;;9.70;4.65;;;22.70;99.90;;;;;;5013500;28;20033;-76
2022/05/16 10:59:49;;;;;;;8.77;4.63;;;22.90;99.90;;;;;;5029128;28;20029;-77
2022/05/16 11:02:53;;;;;;;9.25;4.40;;;23.00;99.90;;;;;;5005388;28;20117;-77
2022/05/16 11:05:57;;;;;;;8.02;4.50;;;22.80;99.90;;;;;;5034507;28;20029;-77
2022/05/16 11:08:46;;;;;;;9.13;4.60;;;22.70;99.90;;;;;;5026059;28;20041;-76
2022/05/16 11:11:36;;;;;;;7.30;4.43;;;22.70;99.90;;;;;;5023661;28;20054;-76
2022/05/16 11:14:11;;;;;;;6.40;4.60;;;22.70;99.90;;;;;;5034261;28;20041;-76
2022/05/16 11:16:39;;;;;;;6.07;4.40;;;22.70;99.90;;;;;;5035110;28;20025;-76
2022/05/16 11:19:16;;;;;;;6.63;4.40;;;22.80;99.90;;;;;;5033622;28;20030;-76
2022/05/16 11:21:59;;;;;;;8.77;4.80;;;22.70;99.90;;;;;;5020928;28;20029;-76
2022/05/16 11:24:57;;;;;;;5.57;4.40;;;22.60;99.90;;;;;;5023041;28;20125;-76
2022/05/16 11:27:47;;;;;;;7.47;4.68;;;22.60;99.90;;;;;;5020483;28;20026;-76
2022/05/16 11:30:51;;;;;;;9.13;4.60;;;22.70;99.90;;;;;;5019434;28;20045;-75
2022/05/16 11:33:47;;;;;;;10.55;5.00;;;22.90;99.90;;;;;;5056483;28;20018;-76
2022/05/16 11:36:47;;;;;;;7.75;4.55;;;22.80;99.90;;;;;;5032292;28;20021;-76
2022/05/16 11:39:25;;;;;;;6.75;4.97;;;23.10;99.90;;;;;;5023535;28;20017;-76
2022/05/16 11:42:07;;;;;;;8.55;5.38;;;23.30;99.90;;;;;;5031720;28;20017;-75
2022/05/16 11:44:44;;;;;;;10.55;6.25;;;22.90;99.90;;;;;;5032071;28;20033;-75
2022/05/16 11:47:40;;;;;;;9.98;6.60;;;22.50;99.90;;;;;;5032240;28;20021;-76
2022/05/16 11:50:11;;;;;;;8.70;7.07;;;22.80;99.90;;;;;;5026608;28;20033;-76
2022/05/16 11:53:04;;;;;;;6.82;6.15;;;23.00;99.90;;;;;;5040244;23;20057;-73
2022/05/16 12:01:26;;;;;;;9.13;5.88;;;22.90;99.90;;;;;;5013026;28;20084;-74
2022/05/16 12:04:11;;;;;;;8.90;5.70;;;22.70;99.90;;;;;;5012841;28;20125;-73
2022/05/16 12:06:39;;;;;;;9.98;5.95;;;22.80;99.90;;;;;;5011934;28;20149;-73
2022/05/16 12:09:19;;;;;;;8.02;5.88;;;23.10;99.90;;;;;;5010195;28;20034;-73
2022/05/16 12:12:28;;;;;;;9.60;5.57;;;23.80;99.90;;;;;;5010555;28;20019;-73
2022/05/16 12:15:29;;;;;;;7.95;5.90;;;23.60;99.90;;;;;;4966844;28;20022;-74
2022/05/16 12:17:57;;;;;;;6.65;5.15;;;24.20;99.90;;;;;;4991179;28;20042;-73
2022/05/16 12:20:46;;;;;;;12.23;5.20;;;24.60;99.90;;;;;;5007762;28;20509;-74
2022/05/16 12:23:32;;;;;;;9.63;5.53;;;25.10;99.90;;;;;;4989675;28;20052;-73
2022/05/16 12:25:58;;;;;;;7.78;5.22;;;24.90;99.90;;;;;;5013250;28;20053;-73
2022/05/16 12:28:29;;;;;;;8.88;5.78;;;24.70;99.90;;;;;;5009861;28;20034;-75
2022/05/16 12:30:58;;;;;;;7.15;5.25;;;25.30;99.90;;;;;;5002498;28;20125;-74
2022/05/16 12:33:32;;;;;;;9.10;5.82;;;25.00;99.90;;;;;;4999947;28;20030;-73
2022/05/16 12:35:58;;;;;;;7.47;5.05;;;25.50;99.90;;;;;;5036666;28;20017;-74
2022/05/16 12:38:27;;;;;;;8.18;5.60;;;25.30;99.90;;;;;;5008216;28;20101;-75
2022/05/16 12:41:08;;;;;;;10.70;5.20;;;26.40;99.90;;;;;;5003102;28;20050;-74
2022/05/16 12:44:25;;;;;;;8.10;5.05;;;27.20;99.90;;;;;;5000673;28;20022;-74
2022/05/16 12:47:27;;;;;;;8.77;5.22;;;26.40;99.90;;;;;;4989327;28;20041;-74
2022/05/16 12:50:04;;;;;;;8.25;5.70;;;25.80;99.90;;;;;;4999448;28;20033;-75
2022/05/16 12:53:13;;;;;;;7.75;4.93;;;26.20;99.90;;;;;;4999158;28;20443;-72
2022/05/16 12:55:50;;;;;;;6.70;4.85;;;27.20;99.90;;;;;;4999507;28;20027;-74
2022/05/16 12:58:22;;;;;;;8.70;5.05;;;27.20;99.90;;;;;;5004912;28;20037;-74
2022/05/16 13:00:52;;;;;;;6.97;4.88;;;27.20;99.90;;;;;;5004310;28;20390;-73
2022/05/16 13:03:40;;;;;;;8.02;5.63;;;26.70;99.90;;;;;;5002259;28;20026;-74
2022/05/16 13:06:23;;;;;;;8.35;5.07;;;26.60;99.90;;;;;;4999414;28;20026;-73
2022/05/16 13:08:56;;;;;;;7.45;5.00;;;27.50;99.90;;;;;;5010895;28;20026;-74
2022/05/16 13:11:34;;;;;;;7.18;4.50;;;27.30;99.90;;;;;;5001448;28;20029;-73
2022/05/16 13:14:19;;;;;;;9.23;4.68;;;27.40;99.90;;;;;;5030248;28;20026;-74
2022/05/16 13:16:55;;;;;;;9.00;5.03;;;26.60;99.90;;;;;;5011301;28;20021;-74
2022/05/16 13:19:23;;;;;;;8.10;4.68;;;25.40;99.90;;;;;;4999746;28;20071;-74
2022/05/16 13:21:55;;;;;;;7.80;4.55;;;25.20;99.90;;;;;;5011649;28;20095;-74
2022/05/16 13:24:23;;;;;;;6.82;4.28;;;24.90;99.90;;;;;;5012595;28;20025;-73
2022/05/16 13:29:36;;;;;;;6.60;4.78;;;24.40;99.90;;;;;;5013064;28;20032;-73
2022/05/16 13:32:15;;;;;;;8.30;5.10;;;24.30;99.90;;;;;;4998792;28;20026;-74
2022/05/16 13:34:45;;;;;;;6.45;4.13;;;24.20;99.90;;;;;;4998617;28;20030;-74
2022/05/16 13:37:12;;;;;;;9.95;4.63;;;23.70;99.90;;;;;;5010976;28;20029;-74
2022/05/16 13:39:43;;;;;;;9.88;5.15;;;23.50;99.90;;;;;;4997932;28;20030;-73
2022/05/16 13:42:09;;;;;;;8.63;4.43;;;23.40;99.90;;;;;;5004198;28;20089;-74